Time;durP1;ratioP1;P1;durP2;ratioP2;P2;SDS_P1;SDS_P2;PMS_P1;PMS_P2;Temp;Humidity;BMP_temperature;BMP_pressure;BME280_temperature;BME280_humidity;BME280_pressure;Samples;Min_cycle;Max_cycle;Signal;HPM_P1;HPM_P2
2023/04/13 05:11:07;;;;;;;14.37;8.83;;;10.10;1.00;;;;;;4860209;29;20323;-93
2023/04/13 05:13:34;;;;;;;12.70;9.00;;;10.20;1.00;;;;;;4861939;29;20713;-92
2023/04/13 05:16:04;;;;;;;11.73;8.17;;;10.30;1.00;;;;;;4862458;29;20298;-92
2023/04/13 05:18:31;;;;;;;16.57;10.77;;;10.40;1.00;;;;;;4861677;29;20233;-94
2023/04/13 05:20:58;;;;;;;18.07;11.33;;;10.40;1.00;;;;;;4861639;29;20208;-93
2023/04/13 05:23:26;;;;;;;19.83;9.60;;;10.40;1.00;;;;;;4862106;29;20214;-94
2023/04/13 05:25:53;;;;;;;20.73;11.13;;;10.50;1.00;;;;;;4861832;29;20646;-93
2023/04/13 05:28:21;;;;;;;15.77;11.60;;;10.50;1.00;;;;;;4861773;29;20235;-94
2023/04/13 05:30:48;;;;;;;13.77;10.17;;;10.60;1.00;;;;;;4854678;29;20686;-93
2023/04/13 05:33:15;;;;;;;11.73;8.77;;;10.60;1.00;;;;;;4862108;29;20568;-93
2023/04/13 05:35:42;;;;;;;14.40;9.30;;;10.60;1.00;;;;;;4862070;29;20215;-94
2023/04/13 05:38:09;;;;;;;16.17;9.13;;;10.70;1.00;;;;;;4861651;29;20253;-95
2023/04/13 05:40:37;;;;;;;13.63;8.37;;;10.70;1.00;;;;;;4861698;29;20200;-93
2023/04/13 05:43:03;;;;;;;12.33;8.53;;;10.70;1.00;;;;;;4862049;29;20246;-94
2023/04/13 05:45:32;;;;;;;14.07;8.27;;;10.80;1.00;;;;;;4862245;29;20209;-94
2023/04/13 05:47:59;;;;;;;11.10;9.07;;;10.80;1.00;;;;;;4861579;29;20575;-94
2023/04/13 05:50:27;;;;;;;15.47;11.43;;;10.90;1.00;;;;;;4861450;29;20221;-94
2023/04/13 05:52:54;;;;;;;16.67;10.60;;;10.90;1.00;;;;;;4861411;29;20204;-94
2023/04/13 05:55:22;;;;;;;12.63;9.77;;;11.00;1.00;;;;;;4862037;29;20236;-94
2023/04/13 05:57:49;;;;;;;13.37;10.03;;;11.10;1.00;;;;;;4862248;29;20206;-94
2023/04/13 06:00:18;;;;;;;14.60;9.53;;;11.20;1.00;;;;;;4862448;29;20616;-94
2023/04/13 06:02:47;;;;;;;15.43;10.80;;;11.30;1.00;;;;;;4863014;29;20251;-93
2023/04/13 06:05:15;;;;;;;14.90;11.10;;;11.30;1.00;;;;;;4866335;29;20210;-95
2023/04/13 06:07:43;;;;;;;16.17;9.83;;;11.40;1.00;;;;;;4867787;29;20290;-95
2023/04/13 06:10:11;;;;;;;15.60;7.90;;;11.50;1.00;;;;;;4880962;29;20229;-95
2023/04/13 06:12:38;;;;;;;15.93;9.70;;;11.60;1.00;;;;;;4888124;29;20206;-96
2023/04/13 06:15:06;;;;;;;14.17;10.33;;;11.60;1.00;;;;;;4887913;29;20204;-95
2023/04/13 06:17:33;;;;;;;14.60;8.73;;;11.70;1.00;;;;;;4885793;29;20218;-94
2023/04/13 06:20:04;;;;;;;16.90;12.47;;;11.90;1.00;;;;;;4886803;29;20260;-95
2023/04/13 06:22:31;;;;;;;31.43;19.40;;;12.10;99.90;;;;;;4888654;29;20212;-95
2023/04/13 06:24:57;;;;;;;19.30;10.43;;;12.40;99.90;;;;;;4892010;29;20224;-94
2023/04/13 06:27:25;;;;;;;15.93;9.53;;;12.60;99.90;;;;;;4894922;29;20264;-95
2023/04/13 06:29:53;;;;;;;12.47;8.67;;;12.80;99.90;;;;;;4893758;29;20221;-95
2023/04/13 06:32:20;;;;;;;17.57;10.50;;;12.90;1.00;;;;;;4891074;29;20256;-94
2023/04/13 06:34:47;;;;;;;17.10;9.33;;;13.00;1.00;;;;;;4892526;29;20212;-95
2023/04/13 06:37:16;;;;;;;12.40;8.17;;;12.90;1.00;;;;;;4896209;29;20207;-95
2023/04/13 06:39:43;;;;;;;15.07;10.13;;;12.80;1.00;;;;;;4895833;29;20193;-95
2023/04/13 06:42:11;;;;;;;16.60;8.23;;;12.80;1.00;;;;;;4897709;29;20613;-94
2023/04/13 06:44:38;;;;;;;19.37;10.63;;;12.80;1.00;;;;;;4900450;29;20233;-95
2023/04/13 06:47:05;;;;;;;9.73;7.63;;;12.80;1.00;;;;;;4900313;29;20200;-95
2023/04/13 06:49:33;;;;;;;11.03;7.27;;;12.80;1.00;;;;;;4901320;29;20228;-96
2023/04/13 06:52:00;;;;;;;11.83;7.70;;;12.70;1.00;;;;;;4899108;29;20204;-96
2023/04/13 06:54:29;;;;;;;13.40;9.20;;;12.70;1.00;;;;;;4902723;29;20207;-96
2023/04/13 06:57:00;;;;;;;12.27;7.73;;;12.60;1.00;;;;;;4901230;29;20204;-95
2023/04/13 06:59:28;;;;;;;13.90;7.60;;;12.60;52.30;;;;;;4901340;29;20189;-96
2023/04/13 07:01:55;;;;;;;12.13;8.43;;;12.60;89.40;;;;;;4901475;29;20180;-96
2023/04/13 07:04:22;;;;;;;9.10;7.57;;;12.60;47.80;;;;;;4902019;29;20214;-95
2023/04/13 07:06:50;;;;;;;10.87;8.03;;;12.60;58.60;;;;;;4901031;29;20208;-95
2023/04/13 07:09:18;;;;;;;10.90;8.13;;;12.60;96.40;;;;;;4900960;29;20227;-95
2023/04/13 07:11:47;;;;;;;14.63;8.60;;;12.60;77.70;;;;;;4900906;29;20208;-96
2023/04/13 07:14:14;;;;;;;11.17;8.27;;;12.60;91.20;;;;;;4901698;29;20206;-96
2023/04/13 07:16:41;;;;;;;11.90;8.33;;;12.60;60.60;;;;;;4902663;29;20237;-95
2023/04/13 07:19:08;;;;;;;14.10;9.50;;;12.60;99.90;;;;;;4903196;29;20228;-96
2023/04/13 07:21:35;;;;;;;13.47;9.53;;;12.70;99.90;;;;;;4904243;29;20224;-95
2023/04/13 07:24:02;;;;;;;12.67;9.17;;;12.60;99.90;;;;;;4904109;29;20229;-95
2023/04/13 07:26:29;;;;;;;12.50;8.77;;;12.60;99.90;;;;;;4902845;29;20241;-96
2023/04/13 07:28:58;;;;;;;14.77;9.07;;;12.70;99.90;;;;;;4903289;29;20200;-96
2023/04/13 07:31:25;;;;;;;11.53;8.57;;;12.70;99.90;;;;;;4902839;29;20269;-96
2023/04/13 07:33:53;;;;;;;14.17;9.53;;;12.80;99.80;;;;;;4903584;29;20232;-96
2023/04/13 07:36:20;;;;;;;12.23;8.53;;;12.90;99.90;;;;;;4903973;29;20213;-96
2023/04/13 07:38:47;;;;;;;12.50;8.33;;;13.00;25.00;;;;;;4885905;29;20559;-96
2023/04/13 07:41:14;;;;;;;15.97;8.83;;;13.20;1.00;;;;;;4891065;29;20237;-96
2023/04/13 07:43:41;;;;;;;9.80;8.17;;;13.40;1.00;;;;;;4902837;29;20194;-95
2023/04/13 07:46:11;;;;;;;12.37;9.77;;;13.50;1.00;;;;;;4898809;29;20238;-96
2023/04/13 07:48:38;;;;;;;23.83;9.00;;;13.60;1.00;;;;;;4899916;29;20202;-96
2023/04/13 07:51:06;;;;;;;10.33;7.63;;;13.60;1.00;;;;;;4898864;29;20259;-96
2023/04/13 07:53:33;;;;;;;11.43;7.43;;;13.70;1.00;;;;;;4896652;29;20231;-95
2023/04/13 07:56:01;;;;;;;11.17;8.00;;;13.80;1.00;;;;;;4897134;29;20220;-95
2023/04/13 07:58:28;;;;;;;17.07;8.07;;;13.80;1.00;;;;;;4894450;29;20229;-96
2023/04/13 08:00:56;;;;;;;9.07;7.53;;;14.00;1.00;;;;;;4894156;29;20231;-95
2023/04/13 08:03:24;;;;;;;8.27;6.80;;;14.10;99.90;;;;;;4895002;29;20214;-96
2023/04/13 08:05:51;;;;;;;9.23;7.40;;;14.30;99.90;;;;;;4895751;29;20206;-96
2023/04/13 08:08:19;;;;;;;8.77;7.27;;;14.40;99.90;;;;;;4893670;29;20193;-96
2023/04/13 08:10:46;;;;;;;19.73;11.27;;;14.50;99.90;;;;;;4893874;29;20282;-95
2023/04/13 08:13:13;;;;;;;11.60;7.40;;;14.70;99.90;;;;;;4892667;29;20222;-95
2023/04/13 08:15:40;;;;;;;8.60;6.83;;;14.80;99.90;;;;;;4895686;29;20230;-96
2023/04/13 08:18:08;;;;;;;7.83;7.00;;;15.00;99.90;;;;;;4895678;29;20206;-96
2023/04/13 08:20:36;;;;;;;7.72;6.82;;;15.10;99.90;;;;;;4895328;29;20212;-96
2023/04/13 08:23:03;;;;;;;8.05;6.35;;;15.30;87.60;;;;;;4894104;29;20205;-96
2023/04/13 08:25:31;;;;;;;6.95;6.03;;;15.40;30.50;;;;;;4893102;29;20200;-96
2023/04/13 08:27:58;;;;;;;7.57;6.00;;;15.70;1.00;;;;;;4893588;29;20716;-96
2023/04/13 08:30:26;;;;;;;6.18;5.50;;;15.80;1.00;;;;;;4894332;29;20229;-96
2023/04/13 08:32:53;;;;;;;7.30;6.28;;;15.90;1.00;;;;;;4890983;29;20614;-96
2023/04/13 08:35:21;;;;;;;12.82;6.40;;;15.90;1.00;;;;;;4890711;29;20278;-96
2023/04/13 08:37:49;;;;;;;9.82;7.07;;;16.00;1.00;;;;;;4889772;29;20214;-96
2023/04/13 08:40:18;;;;;;;7.18;6.47;;;16.00;1.00;;;;;;4888327;29;20228;-96
2023/04/13 08:42:47;;;;;;;12.27;6.07;;;16.20;1.00;;;;;;4888496;29;20650;-96
2023/04/13 08:45:15;;;;;;;6.60;5.90;;;16.20;1.00;;;;;;4888265;29;20722;-96
2023/04/13 08:47:42;;;;;;;7.40;5.90;;;16.10;1.00;;;;;;4888358;29;20591;-96
2023/04/13 08:50:10;;;;;;;7.38;6.68;;;16.00;1.00;;;;;;4888241;29;20230;-95
2023/04/13 08:52:37;;;;;;;7.40;6.40;;;15.90;1.00;;;;;;4887913;29;20223;-96
2023/04/13 08:55:06;;;;;;;9.32;8.32;;;15.80;1.00;;;;;;4886315;29;20198;-95
2023/04/13 08:57:35;;;;;;;6.60;5.80;;;15.70;1.00;;;;;;4885115;29;20201;-96
2023/04/13 09:00:10;;;;;;;6.70;5.78;;;15.60;1.00;;;;;;4886329;29;20205;-96
2023/04/13 09:02:39;;;;;;;7.53;5.50;;;15.50;1.00;;;;;;4886947;29;20658;-95
2023/04/13 09:05:14;;;;;;;9.30;6.00;;;15.40;1.00;;;;;;4886576;29;20227;-96
2023/04/13 09:07:43;;;;;;;6.60;5.47;;;15.40;1.00;;;;;;4886430;29;20201;-96
2023/04/13 09:10:15;;;;;;;7.93;6.93;;;15.30;1.00;;;;;;4886822;29;20229;-96
2023/04/13 09:12:42;;;;;;;8.40;7.40;;;15.30;1.00;;;;;;4886793;29;20210;-95
2023/04/13 09:15:11;;;;;;;10.65;8.00;;;15.20;1.00;;;;;;4886527;29;20201;-96
2023/04/13 09:17:38;;;;;;;8.65;7.85;;;15.10;1.00;;;;;;4886001;29;20268;-95
2023/04/13 09:20:13;;;;;;;10.40;8.13;;;15.00;1.00;;;;;;4885811;29;20202;-96
2023/04/13 09:22:41;;;;;;;9.43;6.47;;;14.90;1.00;;;;;;4886021;29;20586;-96
2023/04/13 09:25:21;;;;;;;6.93;5.85;;;14.90;1.00;;;;;;4885999;29;20273;-95
2023/04/13 09:27:48;;;;;;;8.60;7.70;;;14.80;1.00;;;;;;4885132;29;20193;-96
2023/04/13 09:30:19;;;;;;;9.10;6.75;;;14.80;1.00;;;;;;4884191;29;20220;-96
2023/04/13 09:32:46;;;;;;;7.13;6.43;;;15.00;1.00;;;;;;4884557;29;20229;-96
2023/04/13 09:35:13;;;;;;;7.88;6.63;;;15.40;1.00;;;;;;4883624;29;20206;-95
2023/04/13 09:37:42;;;;;;;7.40;6.68;;;15.70;1.00;;;;;;4883750;29;20210;-96
2023/04/13 09:40:13;;;;;;;7.28;5.22;;;16.00;1.00;;;;;;4889623;29;20238;-96
2023/04/13 09:42:53;;;;;;;5.75;4.70;;;16.00;1.00;;;;;;4888727;29;20194;-96
2023/04/13 09:45:20;;;;;;;6.35;4.72;;;16.00;1.00;;;;;;4887725;29;20253;-96
2023/04/13 09:47:47;;;;;;;5.00;4.30;;;15.90;1.00;;;;;;4888041;29;20201;-96
2023/04/13 09:50:18;;;;;;;5.50;4.43;;;16.00;1.00;;;;;;4886654;29;20253;-96
2023/04/13 09:52:45;;;;;;;7.25;5.40;;;16.10;1.00;;;;;;4885904;29;20210;-96
2023/04/13 09:55:16;;;;;;;7.80;6.80;;;16.30;1.00;;;;;;4885759;29;20195;-96
2023/04/13 09:57:45;;;;;;;8.63;6.15;;;16.60;1.00;;;;;;4887799;29;20258;-96
2023/04/13 10:00:19;;;;;;;8.30;5.70;;;16.70;1.00;;;;;;4886739;29;20214;-96
2023/04/13 10:02:48;;;;;;;8.70;4.55;;;16.80;1.00;;;;;;4884976;29;20218;-96
2023/04/13 10:05:15;;;;;;;6.80;5.00;;;16.90;1.00;;;;;;4887110;29;20255;-96
2023/04/13 10:07:43;;;;;;;7.72;4.63;;;17.00;1.00;;;;;;4883829;29;20207;-96
2023/04/13 10:10:10;;;;;;;8.48;4.78;;;17.00;1.00;;;;;;4885856;29;20246;-96
2023/04/13 10:12:42;;;;;;;5.72;4.32;;;17.10;1.00;;;;;;4886763;29;20202;-96
2023/04/13 10:15:23;;;;;;;5.70;4.50;;;17.20;1.00;;;;;;4886732;29;20239;-96
2023/04/13 10:17:59;;;;;;;5.18;4.35;;;17.30;1.00;;;;;;4868934;29;20207;-96
2023/04/13 10:20:29;;;;;;;10.45;5.15;;;17.40;1.00;;;;;;4867499;29;20188;-96
2023/04/13 10:22:56;;;;;;;27.83;19.02;;;17.40;1.00;;;;;;4868492;29;20378;-96
2023/04/13 10:25:23;;;;;;;68.57;8.35;;;17.40;1.00;;;;;;4868012;29;20204;-96
2023/04/13 10:27:57;;;;;;;8.57;4.20;;;17.40;1.00;;;;;;4867143;29;20264;-96
2023/04/13 10:30:27;;;;;;;6.65;3.83;;;17.40;1.00;;;;;;4867659;29;20602;-96
2023/04/13 10:33:05;;;;;;;10.63;4.10;;;17.60;1.00;;;;;;4886311;29;20206;-96
2023/04/13 10:35:35;;;;;;;6.53;3.42;;;17.70;1.00;;;;;;4885247;29;20667;-96
2023/04/13 10:38:03;;;;;;;6.25;3.70;;;18.00;1.00;;;;;;4885579;29;20206;-96
2023/04/13 10:40:30;;;;;;;5.70;3.92;;;18.10;1.00;;;;;;4888173;29;20206;-96
2023/04/13 10:42:57;;;;;;;6.90;4.40;;;18.10;99.90;;;;;;4887025;29;20277;-96
2023/04/13 10:45:27;;;;;;;5.95;3.95;;;18.10;99.90;;;;;;4887520;29;20231;-96
2023/04/13 10:47:57;;;;;;;8.45;5.13;;;18.10;99.90;;;;;;4886764;29;20210;-96
2023/04/13 10:50:26;;;;;;;6.47;3.83;;;18.20;99.90;;;;;;4886665;29;20236;-96
2023/04/13 10:53:01;;;;;;;4.88;3.45;;;18.30;99.90;;;;;;4886983;29;20207;-96
2023/04/13 10:55:29;;;;;;;24.15;12.10;;;18.20;99.90;;;;;;4886335;29;20210;-96
2023/04/13 10:57:58;;;;;;;4.75;3.10;;;18.30;99.90;;;;;;4886278;29;20286;-96
2023/04/13 11:00:29;;;;;;;4.85;3.45;;;18.20;99.90;;;;;;4887700;29;20231;-96
2023/04/13 11:02:57;;;;;;;9.07;3.88;;;18.20;99.90;;;;;;4886726;29;20213;-96
2023/04/13 11:05:26;;;;;;;5.88;4.25;;;18.20;99.90;;;;;;4886554;29;20264;-96
2023/04/13 11:07:53;;;;;;;10.32;4.32;;;18.20;99.90;;;;;;4884444;29;20208;-96
2023/04/13 11:10:25;;;;;;;6.65;3.30;;;18.30;99.90;;;;;;4885697;29;20299;-96
2023/04/13 11:12:54;;;;;;;3.60;2.60;;;18.30;99.90;;;;;;4884768;29;20286;-95
2023/04/13 11:15:22;;;;;;;5.00;2.92;;;18.40;99.90;;;;;;4883770;29;20206;-96
2023/04/13 11:17:56;;;;;;;3.13;2.40;;;18.60;99.90;;;;;;4884754;29;20222;-96
2023/04/13 11:20:31;;;;;;;9.68;4.15;;;18.60;99.90;;;;;;4884998;29;20293;-96
2023/04/13 11:23:01;;;;;;;5.45;3.33;;;18.70;99.90;;;;;;4884446;29;20206;-96
2023/04/13 11:25:28;;;;;;;6.35;4.18;;;18.60;99.90;;;;;;4885637;29;20203;-96
2023/04/13 11:27:57;;;;;;;5.25;3.97;;;18.60;99.90;;;;;;4886671;29;20218;-96
2023/04/13 11:30:24;;;;;;;4.50;2.83;;;18.50;99.90;;;;;;4885551;29;20199;-96
2023/04/13 11:32:53;;;;;;;5.30;3.60;;;18.50;99.90;;;;;;4885486;29;20217;-96
2023/04/13 11:35:22;;;;;;;7.45;3.28;;;18.50;99.90;;;;;;4885538;29;20267;-96
2023/04/13 11:37:52;;;;;;;8.38;3.33;;;18.30;99.90;;;;;;4887705;29;20241;-96
2023/04/13 11:40:24;;;;;;;16.73;3.60;;;18.20;99.90;;;;;;4886036;29;20251;-96
2023/04/13 11:42:53;;;;;;;4.32;2.28;;;18.20;99.90;;;;;;4887065;29;20205;-96
2023/04/13 11:45:22;;;;;;;4.20;2.20;;;18.20;99.90;;;;;;4887011;29;20207;-96
2023/04/13 11:47:50;;;;;;;3.10;2.35;;;18.10;99.90;;;;;;4885475;29;20195;-96
2023/04/13 11:50:18;;;;;;;7.90;4.13;;;18.00;99.90;;;;;;4887509;29;20207;-95
2023/04/13 11:52:49;;;;;;;6.10;5.50;;;17.90;99.90;;;;;;4890621;29;20222;-96
2023/04/13 11:55:17;;;;;;;6.88;3.15;;;17.90;99.90;;;;;;4887524;29;20207;-96
2023/04/13 11:57:44;;;;;;;4.78;3.20;;;17.80;99.90;;;;;;4887613;29;20255;-96
2023/04/13 12:00:17;;;;;;;6.25;3.65;;;17.80;99.90;;;;;;4888338;29;20207;-96
2023/04/13 12:02:45;;;;;;;7.07;2.20;;;17.70;99.90;;;;;;4886942;29;20231;-95
2023/04/13 12:05:22;;;;;;;4.25;2.88;;;17.60;99.90;;;;;;4888120;29;20694;-96
2023/04/13 12:07:52;;;;;;;4.47;3.15;;;17.30;99.90;;;;;;4889393;29;20186;-96
2023/04/13 12:10:25;;;;;;;7.80;3.95;;;17.30;99.90;;;;;;4886881;29;20259;-96
2023/04/13 12:13:05;;;;;;;5.32;3.13;;;17.20;99.90;;;;;;4886891;29;20271;-96
2023/04/13 12:15:34;;;;;;;4.75;2.90;;;17.10;99.90;;;;;;4886815;29;20247;-95
2023/04/13 12:18:03;;;;;;;3.75;2.47;;;17.00;99.90;;;;;;4885882;29;20623;-96
2023/04/13 12:20:42;;;;;;;5.38;3.40;;;16.90;99.90;;;;;;4886681;29;20263;-95
2023/04/13 12:23:19;;;;;;;6.97;3.75;;;16.80;99.90;;;;;;4883961;29;20213;-95
2023/04/13 12:25:56;;;;;;;7.53;4.03;;;16.60;99.90;;;;;;4884195;29;20183;-96
2023/04/13 12:28:29;;;;;;;15.13;10.05;;;16.40;99.90;;;;;;4886393;29;20201;-96
2023/04/13 12:31:02;;;;;;;12.05;7.22;;;16.30;99.90;;;;;;4884519;29;20667;-95
2023/04/13 12:33:29;;;;;;;7.15;4.95;;;16.20;99.90;;;;;;4885459;29;20224;-95
2023/04/13 12:35:56;;;;;;;6.32;3.40;;;16.20;99.90;;;;;;4882368;29;20294;-95
2023/04/13 12:38:25;;;;;;;5.43;3.30;;;16.10;99.90;;;;;;4883091;29;20218;-96
2023/04/13 12:40:55;;;;;;;7.70;3.67;;;15.90;99.90;;;;;;4876601;29;20218;-96
2023/04/13 12:43:22;;;;;;;7.03;4.05;;;15.70;99.90;;;;;;4864882;29;20263;-95
2023/04/13 12:45:50;;;;;;;7.93;4.55;;;15.60;99.90;;;;;;4868069;29;20206;-95
2023/04/13 12:48:17;;;;;;;8.98;3.70;;;15.60;99.90;;;;;;4885913;29;20285;-95
2023/04/13 12:50:45;;;;;;;23.58;5.50;;;15.60;99.90;;;;;;4884019;29;20211;-96
2023/04/13 12:53:12;;;;;;;9.00;4.60;;;15.60;99.90;;;;;;4883679;29;20218;-96
2023/04/13 12:55:41;;;;;;;4.50;3.33;;;15.70;99.90;;;;;;4884580;29;20206;-95
2023/04/13 12:58:08;;;;;;;4.63;2.90;;;15.70;99.90;;;;;;4884196;29;20683;-95
2023/04/13 13:00:35;;;;;;;12.45;2.65;;;15.90;99.90;;;;;;4885988;29;20205;-95
2023/04/13 13:03:04;;;;;;;4.93;3.10;;;16.00;99.90;;;;;;4886187;29;20210;-96
2023/04/13 13:05:31;;;;;;;5.05;2.42;;;16.20;99.90;;;;;;4883348;29;20198;-96
2023/04/13 13:07:59;;;;;;;10.05;2.60;;;16.40;99.90;;;;;;4884600;29;20333;-96
2023/04/13 13:10:26;;;;;;;11.02;6.75;;;16.60;99.90;;;;;;4884468;29;20230;-96
2023/04/13 13:12:54;;;;;;;17.55;9.90;;;16.80;99.90;;;;;;4886461;29;20640;-96
2023/04/13 13:15:21;;;;;;;9.23;4.90;;;17.00;99.90;;;;;;4887992;29;20207;-96
2023/04/13 13:17:48;;;;;;;8.35;3.13;;;17.10;99.90;;;;;;4887849;29;20776;-95
2023/04/13 13:20:16;;;;;;;5.88;2.78;;;17.20;99.90;;;;;;4889524;29;20199;-96
2023/04/13 13:22:43;;;;;;;3.38;2.15;;;17.30;99.90;;;;;;4886807;29;20203;-96
2023/04/13 13:25:10;;;;;;;4.85;2.58;;;17.50;99.90;;;;;;4886477;29;20263;-95
2023/04/13 13:27:37;;;;;;;2.95;1.90;;;17.60;99.90;;;;;;4887162;29;20214;-96
2023/04/13 13:30:08;;;;;;;4.55;2.38;;;17.80;99.90;;;;;;4885985;29;20710;-95
2023/04/13 13:32:36;;;;;;;6.28;2.40;;;18.00;99.90;;;;;;4886043;29;20203;-96
2023/04/13 13:35:04;;;;;;;4.68;2.92;;;18.30;99.90;;;;;;4885296;29;20241;-96
2023/04/13 13:37:30;;;;;;;4.28;2.30;;;18.40;99.90;;;;;;4886418;29;20282;-96
2023/04/13 13:39:58;;;;;;;5.43;2.20;;;18.60;99.90;;;;;;4887259;29;20383;-96
2023/04/13 13:42:25;;;;;;;4.95;3.42;;;18.70;99.90;;;;;;4886804;29;20202;-96
2023/04/13 13:44:52;;;;;;;3.40;2.20;;;18.60;99.90;;;;;;4886163;29;20203;-96
2023/04/13 13:47:20;;;;;;;6.10;2.30;;;18.60;99.90;;;;;;4885950;29;20204;-96
2023/04/13 13:49:47;;;;;;;4.38;2.40;;;18.50;99.90;;;;;;4885813;29;20207;-96
2023/04/13 13:52:15;;;;;;;2.95;1.63;;;18.50;99.90;;;;;;4885551;29;20263;-96
2023/04/13 13:54:41;;;;;;;3.17;1.92;;;18.40;99.90;;;;;;4885484;29;20652;-96
2023/04/13 13:57:09;;;;;;;2.45;1.48;;;18.30;99.90;;;;;;4885756;29;20203;-96
2023/04/13 13:59:36;;;;;;;4.28;1.98;;;18.20;99.90;;;;;;4885514;29;20214;-96
2023/04/13 14:02:03;;;;;;;5.60;3.47;;;18.10;99.90;;;;;;4886633;29;20263;-96
2023/04/13 14:04:31;;;;;;;10.25;2.90;;;18.00;99.90;;;;;;4887534;29;20195;-96
2023/04/13 14:06:58;;;;;;;6.80;3.42;;;17.90;99.90;;;;;;4886478;29;20242;-96
2023/04/13 14:09:26;;;;;;;3.42;2.50;;;17.80;99.90;;;;;;4885942;29;20318;-96
2023/04/13 14:11:54;;;;;;;3.33;2.00;;;17.60;99.90;;;;;;4885978;29;20219;-96
2023/04/13 14:14:22;;;;;;;1.73;1.08;;;17.50;99.90;;;;;;4887568;29;20206;-96
2023/04/13 14:16:49;;;;;;;1.98;1.20;;;17.40;99.90;;;;;;4890329;29;20230;-96
2023/04/13 14:19:17;;;;;;;5.25;1.73;;;17.20;99.90;;;;;;4890018;29;20202;-96
2023/04/13 14:21:47;;;;;;;3.72;2.60;;;17.00;99.90;;;;;;4889744;29;20195;-95
2023/04/13 14:24:14;;;;;;;4.47;2.70;;;16.90;99.90;;;;;;4888593;29;20286;-96
2023/04/13 14:26:41;;;;;;;6.82;3.45;;;17.00;99.90;;;;;;4888000;29;20207;-96
2023/04/13 14:29:08;;;;;;;6.70;4.20;;;17.00;99.90;;;;;;4887059;29;20203;-96
2023/04/13 14:31:35;;;;;;;3.13;2.10;;;17.10;99.90;;;;;;4887120;29;20234;-96
2023/04/13 14:34:02;;;;;;;8.73;4.63;;;17.20;99.90;;;;;;4885905;29;20275;-96
2023/04/13 14:36:29;;;;;;;4.38;2.55;;;17.30;99.90;;;;;;4887972;29;20683;-96
2023/04/13 14:38:59;;;;;;;5.65;3.47;;;17.20;99.90;;;;;;4887720;29;20206;-96
2023/04/13 14:41:26;;;;;;;4.82;1.20;;;17.20;99.90;;;;;;4889456;29;20222;-96
2023/04/13 14:43:53;;;;;;;1.85;1.10;;;17.20;99.90;;;;;;4890510;29;20211;-96
2023/04/13 14:46:20;;;;;;;4.35;1.20;;;17.10;99.90;;;;;;4891511;29;20195;-95
2023/04/13 14:48:47;;;;;;;2.10;1.30;;;17.00;99.90;;;;;;4889880;29;20203;-96
2023/04/13 14:51:17;;;;;;;3.33;2.08;;;16.90;99.90;;;;;;4889898;29;20244;-96
2023/04/13 14:53:44;;;;;;;2.70;1.10;;;17.00;99.90;;;;;;4888599;29;20244;-96
2023/04/13 14:56:13;;;;;;;3.88;2.03;;;17.10;99.90;;;;;;4890404;29;20202;-95
2023/04/13 14:58:40;;;;;;;6.55;4.63;;;17.10;99.90;;;;;;4888382;29;20195;-96
2023/04/13 15:01:16;;;;;;;6.43;2.85;;;17.00;99.90;;;;;;4887112;29;20267;-96
2023/04/13 15:03:43;;;;;;;5.00;3.00;;;17.10;99.90;;;;;;4886643;29;20258;-96
2023/04/13 15:06:10;;;;;;;11.50;7.65;;;17.20;99.90;;;;;;4884670;29;20549;-96
2023/04/13 15:08:38;;;;;;;3.28;2.10;;;17.30;99.90;;;;;;4884524;29;20195;-95
2023/04/13 15:11:06;;;;;;;1.75;1.05;;;17.40;99.90;;;;;;4867446;29;20214;-96
2023/04/13 15:13:34;;;;;;;2.50;1.30;;;17.40;99.90;;;;;;4867423;29;20231;-96
2023/04/13 15:16:01;;;;;;;2.80;1.70;;;17.40;99.90;;;;;;4867722;29;20214;-96
2023/04/13 15:18:28;;;;;;;5.57;1.63;;;17.50;99.90;;;;;;4866225;29;20211;-96
2023/04/13 15:20:55;;;;;;;3.45;0.98;;;17.60;99.90;;;;;;4850133;29;20212;-96
2023/04/13 15:23:22;;;;;;;3.03;1.35;;;17.50;99.90;;;;;;4866179;29;20627;-96
2023/04/13 15:25:50;;;;;;;3.28;1.88;;;17.50;99.90;;;;;;4871226;29;20215;-96
2023/04/13 15:28:17;;;;;;;3.35;1.30;;;17.50;99.90;;;;;;4870638;29;20211;-96
2023/04/13 15:30:46;;;;;;;7.82;3.53;;;17.50;99.90;;;;;;4873174;29;20235;-96
2023/04/13 15:33:13;;;;;;;9.15;5.25;;;17.50;99.90;;;;;;4874937;29;20223;-96
2023/04/13 15:35:40;;;;;;;7.90;4.93;;;17.50;99.90;;;;;;4875879;29;20204;-96
2023/04/13 15:38:08;;;;;;;2.78;1.48;;;17.40;99.90;;;;;;4881771;29;20206;-96
2023/04/13 15:40:36;;;;;;;4.07;1.92;;;17.20;99.90;;;;;;4881090;29;20211;-96
2023/04/13 15:43:04;;;;;;;16.70;6.78;;;17.10;99.90;;;;;;4881740;29;20210;-96
2023/04/13 15:45:33;;;;;;;17.35;9.85;;;17.10;99.90;;;;;;4881855;29;20241;-96
2023/04/13 15:48:01;;;;;;;4.95;2.20;;;17.00;99.90;;;;;;4881148;29;20240;-96
2023/04/13 15:50:29;;;;;;;3.90;1.95;;;16.90;99.90;;;;;;4883395;29;20203;-96
2023/04/13 15:52:56;;;;;;;4.57;2.45;;;16.80;99.90;;;;;;4882232;29;20264;-96
2023/04/13 15:55:23;;;;;;;4.55;1.40;;;16.80;99.90;;;;;;4882919;29;20234;-96
2023/04/13 15:58:02;;;;;;;2.03;1.25;;;16.80;99.90;;;;;;5154090;27;20519;-96
2023/04/13 16:00:30;;;;;;;4.18;1.55;;;16.70;99.90;;;;;;5153129;28;20198;-96
2023/04/13 16:02:59;;;;;;;2.45;1.20;;;16.70;99.90;;;;;;5150995;28;20190;-96
2023/04/13 16:05:27;;;;;;;2.60;1.25;;;16.60;99.90;;;;;;5153689;28;20198;-96
2023/04/13 16:07:54;;;;;;;3.08;1.77;;;16.60;99.90;;;;;;5153978;27;20198;-96
2023/04/13 16:10:21;;;;;;;3.85;2.60;;;16.50;99.90;;;;;;5152483;28;20194;-96
2023/04/13 16:12:48;;;;;;;5.32;1.98;;;16.40;99.90;;;;;;5153016;28;20201;-96
2023/04/13 16:15:18;;;;;;;5.72;4.72;;;16.40;99.90;;;;;;5159863;27;20186;-95
2023/04/13 16:17:46;;;;;;;11.48;7.75;;;16.30;99.90;;;;;;5162392;27;20204;-96
2023/04/13 16:20:21;;;;;;;14.82;9.65;;;16.40;99.90;;;;;;5153708;28;20261;-96
2023/04/13 16:22:51;;;;;;;6.88;3.85;;;16.40;99.90;;;;;;5153428;27;20197;-96
2023/04/13 16:25:19;;;;;;;3.95;2.22;;;16.30;99.90;;;;;;5154129;28;20203;-95
2023/04/13 16:27:47;;;;;;;3.60;1.75;;;16.20;99.90;;;;;;5152471;27;20674;-96
2023/04/13 16:30:19;;;;;;;3.38;2.05;;;16.10;99.90;;;;;;5132957;28;20220;-96
2023/04/13 16:32:48;;;;;;;6.28;2.50;;;16.00;99.90;;;;;;5141722;28;20198;-96
2023/04/13 16:35:15;;;;;;;4.40;1.80;;;15.80;99.90;;;;;;5151962;28;20197;-95
2023/04/13 16:37:43;;;;;;;4.72;1.83;;;15.80;99.90;;;;;;5151678;28;20213;-95
2023/04/13 16:40:11;;;;;;;3.15;1.70;;;15.70;99.90;;;;;;5151564;28;20195;-96
2023/04/13 16:42:39;;;;;;;2.83;1.70;;;15.60;99.90;;;;;;5152769;28;20228;-95
2023/04/13 16:45:09;;;;;;;3.85;2.80;;;15.60;99.90;;;;;;5152574;28;20223;-95
2023/04/13 16:47:37;;;;;;;4.75;2.50;;;15.50;99.90;;;;;;5153816;27;20191;-96
2023/04/13 16:50:06;;;;;;;3.42;1.90;;;15.40;99.90;;;;;;5153374;27;20180;-96
2023/04/13 16:52:34;;;;;;;5.10;2.05;;;15.30;99.90;;;;;;5149835;28;20287;-94
2023/04/13 16:55:02;;;;;;;10.35;5.28;;;15.20;99.90;;;;;;5152007;28;20201;-94
2023/04/13 16:57:30;;;;;;;9.88;5.03;;;15.10;99.90;;;;;;5149961;27;20283;-94
2023/04/13 16:59:59;;;;;;;22.40;10.88;;;14.90;99.90;;;;;;5147821;28;20258;-94
2023/04/13 17:02:27;;;;;;;12.18;6.95;;;14.80;99.90;;;;;;5148083;28;20189;-95
2023/04/13 17:04:55;;;;;;;9.73;5.82;;;14.70;99.90;;;;;;5147171;27;20200;-95
2023/04/13 17:07:25;;;;;;;4.47;2.20;;;14.60;99.90;;;;;;5143470;28;20195;-95
2023/04/13 17:09:52;;;;;;;3.37;2.00;;;14.40;99.90;;;;;;5134218;28;20202;-95
2023/04/13 17:12:19;;;;;;;6.07;2.03;;;14.40;99.90;;;;;;5134230;28;20253;-94
2023/04/13 17:14:48;;;;;;;3.93;2.00;;;14.30;99.90;;;;;;5128495;28;20667;-95
2023/04/13 17:17:15;;;;;;;2.28;1.75;;;14.20;99.90;;;;;;5129232;28;20299;-95
2023/04/13 17:19:42;;;;;;;3.60;1.85;;;14.00;99.90;;;;;;5129621;28;20193;-95
2023/04/13 17:22:11;;;;;;;3.00;1.90;;;13.90;99.90;;;;;;5127888;28;20262;-94
2023/04/13 17:24:39;;;;;;;3.67;1.90;;;13.80;99.90;;;;;;5126017;28;20202;-94
2023/04/13 17:27:06;;;;;;;4.50;3.80;;;13.70;99.90;;;;;;5126885;28;20188;-94
2023/04/13 17:29:35;;;;;;;8.07;6.60;;;13.60;99.90;;;;;;5125044;28;20203;-94
2023/04/13 17:32:02;;;;;;;10.47;7.77;;;13.50;99.90;;;;;;5123627;27;20198;-94
2023/04/13 17:34:29;;;;;;;3.93;2.90;;;13.40;99.90;;;;;;5123982;28;20229;-95
2023/04/13 17:36:56;;;;;;;3.17;2.07;;;13.30;99.90;;;;;;5121867;28;20225;-93
2023/04/13 17:39:25;;;;;;;4.43;2.33;;;13.30;99.90;;;;;;5104107;28;20201;-93
2023/04/13 17:41:52;;;;;;;3.00;2.00;;;13.20;99.90;;;;;;5126341;27;20768;-94
2023/04/13 17:44:19;;;;;;;2.67;1.83;;;13.10;99.90;;;;;;5121507;27;20190;-94
2023/04/13 17:46:47;;;;;;;3.50;1.77;;;13.00;99.90;;;;;;5120529;27;20385;-95
2023/04/13 17:49:15;;;;;;;2.20;1.50;;;13.00;99.90;;;;;;5125740;28;20193;-95
2023/04/13 17:51:44;;;;;;;2.70;1.60;;;12.90;99.90;;;;;;5135900;28;20244;-95
2023/04/13 17:54:12;;;;;;;3.23;2.00;;;12.80;99.90;;;;;;5129889;28;20196;-95
2023/04/13 17:56:40;;;;;;;5.43;1.80;;;12.70;99.90;;;;;;5124588;28;20239;-94
2023/04/13 17:59:07;;;;;;;3.67;1.90;;;12.60;99.90;;;;;;5130271;28;20199;-93
2023/04/13 18:01:34;;;;;;;3.67;1.60;;;12.50;1.00;;;;;;5127115;28;20237;-92